sensor_id;sensor_type;location;lat;lon;timestamp;temperature;humidity
68556;HTU21D;55544;51.032;5.866;2023-06-19T00:02:07;24.39;51.98
68556;HTU21D;55544;51.032;5.866;2023-06-19T00:04:32;24.41;51.90
68556;HTU21D;55544;51.032;5.866;2023-06-19T00:06:59;24.40;52.00
68556;HTU21D;55544;51.032;5.866;2023-06-19T00:09:25;24.36;52.08
68556;HTU21D;55544;51.032;5.866;2023-06-19T00:11:51;24.35;52.27
68556;HTU21D;55544;51.032;5.866;2023-06-19T00:14:17;24.41;52.19
68556;HTU21D;55544;51.032;5.866;2023-06-19T00:16:43;24.33;52.40
68556;HTU21D;55544;51.032;5.866;2023-06-19T00:19:09;24.32;52.58
68556;HTU21D;55544;51.032;5.866;2023-06-19T00:21:36;24.28;52.87
68556;HTU21D;55544;51.032;5.866;2023-06-19T00:24:03;24.26;52.86
68556;HTU21D;55544;51.032;5.866;2023-06-19T00:26:29;24.19;53.18
68556;HTU21D;55544;51.032;5.866;2023-06-19T00:28:56;24.15;53.36
68556;HTU21D;55544;51.032;5.866;2023-06-19T00:31:21;24.10;53.51
68556;HTU21D;55544;51.032;5.866;2023-06-19T00:33:48;24.09;53.62
68556;HTU21D;55544;51.032;5.866;2023-06-19T00:36:16;24.03;54.01
68556;HTU21D;55544;51.032;5.866;2023-06-19T00:38:46;24.00;54.26
68556;HTU21D;55544;51.032;5.866;2023-06-19T00:41:12;24.01;54.45
68556;HTU21D;55544;51.032;5.866;2023-06-19T00:43:38;24.13;54.24
68556;HTU21D;55544;51.032;5.866;2023-06-19T00:46:04;24.25;53.91
68556;HTU21D;55544;51.032;5.866;2023-06-19T00:48:31;24.35;53.49
68556;HTU21D;55544;51.032;5.866;2023-06-19T00:50:58;24.45;53.35
68556;HTU21D;55544;51.032;5.866;2023-06-19T00:53:25;24.49;53.49
68556;HTU21D;55544;51.032;5.866;2023-06-19T00:55:53;24.51;53.53
68556;HTU21D;55544;51.032;5.866;2023-06-19T00:58:22;24.48;53.56
68556;HTU21D;55544;51.032;5.866;2023-06-19T01:00:48;24.45;53.50
68556;HTU21D;55544;51.032;5.866;2023-06-19T01:03:15;24.45;53.51
68556;HTU21D;55544;51.032;5.866;2023-06-19T01:05:42;24.46;53.56
68556;HTU21D;55544;51.032;5.866;2023-06-19T01:10:50;24.39;53.72
68556;HTU21D;55544;51.032;5.866;2023-06-19T01:15:58;24.28;54.14
68556;HTU21D;55544;51.032;5.866;2023-06-19T01:18:29;24.12;54.37
68556;HTU21D;55544;51.032;5.866;2023-06-19T01:20:55;24.03;54.87
68556;HTU21D;55544;51.032;5.866;2023-06-19T01:23:20;24.00;54.91
68556;HTU21D;55544;51.032;5.866;2023-06-19T01:25:46;23.96;54.81
68556;HTU21D;55544;51.032;5.866;2023-06-19T01:28:12;23.94;55.04
68556;HTU21D;55544;51.032;5.866;2023-06-19T01:30:40;23.87;55.18
68556;HTU21D;55544;51.032;5.866;2023-06-19T01:33:20;23.79;55.57
68556;HTU21D;55544;51.032;5.866;2023-06-19T01:35:49;23.69;55.87
68556;HTU21D;55544;51.032;5.866;2023-06-19T01:38:17;23.64;56.29
68556;HTU21D;55544;51.032;5.866;2023-06-19T01:40:46;23.56;56.61
68556;HTU21D;55544;51.032;5.866;2023-06-19T01:43:18;23.54;57.14
68556;HTU21D;55544;51.032;5.866;2023-06-19T01:45:44;23.45;57.61
68556;HTU21D;55544;51.032;5.866;2023-06-19T01:48:10;23.36;58.67
68556;HTU21D;55544;51.032;5.866;2023-06-19T01:50:38;23.28;59.14
68556;HTU21D;55544;51.032;5.866;2023-06-19T01:53:04;23.20;59.07
68556;HTU21D;55544;51.032;5.866;2023-06-19T01:55:30;23.10;59.56
68556;HTU21D;55544;51.032;5.866;2023-06-19T01:57:57;23.02;59.89
68556;HTU21D;55544;51.032;5.866;2023-06-19T02:00:22;22.95;60.22
68556;HTU21D;55544;51.032;5.866;2023-06-19T02:02:49;22.86;60.54
68556;HTU21D;55544;51.032;5.866;2023-06-19T02:05:14;22.83;60.78
68556;HTU21D;55544;51.032;5.866;2023-06-19T02:07:41;22.78;61.09
68556;HTU21D;55544;51.032;5.866;2023-06-19T02:10:07;22.76;61.29
68556;HTU21D;55544;51.032;5.866;2023-06-19T02:12:33;22.67;61.62
68556;HTU21D;55544;51.032;5.866;2023-06-19T02:14:59;22.65;61.96
68556;HTU21D;55544;51.032;5.866;2023-06-19T02:17:25;22.54;62.75
68556;HTU21D;55544;51.032;5.866;2023-06-19T02:19:50;22.49;62.66
68556;HTU21D;55544;51.032;5.866;2023-06-19T02:22:17;22.39;63.05
68556;HTU21D;55544;51.032;5.866;2023-06-19T02:24:43;22.31;63.42
68556;HTU21D;55544;51.032;5.866;2023-06-19T02:27:12;22.23;63.86
68556;HTU21D;55544;51.032;5.866;2023-06-19T02:29:37;22.17;64.05
68556;HTU21D;55544;51.032;5.866;2023-06-19T02:32:03;22.07;64.84
68556;HTU21D;55544;51.032;5.866;2023-06-19T02:34:29;22.04;64.78
68556;HTU21D;55544;51.032;5.866;2023-06-19T02:36:55;21.97;65.41
68556;HTU21D;55544;51.032;5.866;2023-06-19T02:39:21;21.99;65.11
68556;HTU21D;55544;51.032;5.866;2023-06-19T02:41:47;21.97;65.25
68556;HTU21D;55544;51.032;5.866;2023-06-19T02:44:13;21.90;65.61
68556;HTU21D;55544;51.032;5.866;2023-06-19T02:46:39;21.90;65.88
68556;HTU21D;55544;51.032;5.866;2023-06-19T02:49:05;21.85;65.95
68556;HTU21D;55544;51.032;5.866;2023-06-19T02:51:31;21.85;66.07
68556;HTU21D;55544;51.032;5.866;2023-06-19T02:53:56;21.83;66.29
68556;HTU21D;55544;51.032;5.866;2023-06-19T02:56:23;21.85;66.24
68556;HTU21D;55544;51.032;5.866;2023-06-19T02:58:49;21.82;66.43
68556;HTU21D;55544;51.032;5.866;2023-06-19T03:01:15;21.74;66.91
68556;HTU21D;55544;51.032;5.866;2023-06-19T03:03:44;21.65;67.27
68556;HTU21D;55544;51.032;5.866;2023-06-19T03:06:12;21.61;67.34
68556;HTU21D;55544;51.032;5.866;2023-06-19T03:08:39;21.59;67.46
68556;HTU21D;55544;51.032;5.866;2023-06-19T03:11:05;21.58;67.59
68556;HTU21D;55544;51.032;5.866;2023-06-19T03:13:47;21.58;67.63
68556;HTU21D;55544;51.032;5.866;2023-06-19T03:16:13;21.54;67.72
68556;HTU21D;55544;51.032;5.866;2023-06-19T03:18:41;21.54;67.80
68556;HTU21D;55544;51.032;5.866;2023-06-19T03:21:08;21.52;67.93
68556;HTU21D;55544;51.032;5.866;2023-06-19T03:23:33;21.47;68.20
68556;HTU21D;55544;51.032;5.866;2023-06-19T03:25:59;21.39;68.47
68556;HTU21D;55544;51.032;5.866;2023-06-19T03:28:25;21.37;68.75
68556;HTU21D;55544;51.032;5.866;2023-06-19T03:30:52;21.35;68.96
68556;HTU21D;55544;51.032;5.866;2023-06-19T03:33:21;21.31;69.31
68556;HTU21D;55544;51.032;5.866;2023-06-19T03:35:47;21.27;69.43
68556;HTU21D;55544;51.032;5.866;2023-06-19T03:38:39;21.24;69.75
68556;HTU21D;55544;51.032;5.866;2023-06-19T03:41:05;21.23;69.97
68556;HTU21D;55544;51.032;5.866;2023-06-19T03:43:31;21.27;69.99
68556;HTU21D;55544;51.032;5.866;2023-06-19T03:45:56;21.27;70.12
68556;HTU21D;55544;51.032;5.866;2023-06-19T03:48:22;21.30;70.13
68556;HTU21D;55544;51.032;5.866;2023-06-19T03:50:48;21.27;70.40
68556;HTU21D;55544;51.032;5.866;2023-06-19T03:53:14;21.29;70.54
68556;HTU21D;55544;51.032;5.866;2023-06-19T03:55:40;21.31;70.75
68556;HTU21D;55544;51.032;5.866;2023-06-19T03:58:05;21.31;70.97
68556;HTU21D;55544;51.032;5.866;2023-06-19T04:00:32;21.38;70.52
68556;HTU21D;55544;51.032;5.866;2023-06-19T04:02:57;21.45;70.21
68556;HTU21D;55544;51.032;5.866;2023-06-19T04:05:23;21.48;70.12
68556;HTU21D;55544;51.032;5.866;2023-06-19T04:07:50;21.49;70.18
68556;HTU21D;55544;51.032;5.866;2023-06-19T04:10:16;21.46;70.10
68556;HTU21D;55544;51.032;5.866;2023-06-19T04:12:42;21.42;70.20
68556;HTU21D;55544;51.032;5.866;2023-06-19T04:15:08;21.45;70.32
68556;HTU21D;55544;51.032;5.866;2023-06-19T04:17:35;21.45;70.34
68556;HTU21D;55544;51.032;5.866;2023-06-19T04:20:03;21.44;70.35
68556;HTU21D;55544;51.032;5.866;2023-06-19T04:22:40;21.42;70.52
68556;HTU21D;55544;51.032;5.866;2023-06-19T04:25:07;21.43;70.67
68556;HTU21D;55544;51.032;5.866;2023-06-19T04:27:33;21.39;70.81
68556;HTU21D;55544;51.032;5.866;2023-06-19T04:29:58;21.37;71.15
68556;HTU21D;55544;51.032;5.866;2023-06-19T04:32:24;21.40;70.94
68556;HTU21D;55544;51.032;5.866;2023-06-19T04:34:50;21.49;70.77
68556;HTU21D;55544;51.032;5.866;2023-06-19T04:37:15;21.50;70.69
68556;HTU21D;55544;51.032;5.866;2023-06-19T04:39:47;21.51;70.78
68556;HTU21D;55544;51.032;5.866;2023-06-19T04:42:15;21.51;70.94
68556;HTU21D;55544;51.032;5.866;2023-06-19T04:44:49;21.59;70.71
68556;HTU21D;55544;51.032;5.866;2023-06-19T04:47:18;21.57;70.57
68556;HTU21D;55544;51.032;5.866;2023-06-19T04:49:43;21.60;70.53
68556;HTU21D;55544;51.032;5.866;2023-06-19T04:52:09;21.58;70.57
68556;HTU21D;55544;51.032;5.866;2023-06-19T04:54:37;21.54;70.92
68556;HTU21D;55544;51.032;5.866;2023-06-19T04:57:03;21.58;71.02
68556;HTU21D;55544;51.032;5.866;2023-06-19T04:59:28;21.60;70.89
68556;HTU21D;55544;51.032;5.866;2023-06-19T05:01:59;21.59;70.78
68556;HTU21D;55544;51.032;5.866;2023-06-19T05:04:24;21.52;71.21
68556;HTU21D;55544;51.032;5.866;2023-06-19T05:06:51;21.52;71.45
68556;HTU21D;55544;51.032;5.866;2023-06-19T05:09:17;21.46;71.63
68556;HTU21D;55544;51.032;5.866;2023-06-19T05:11:43;21.47;71.71
68556;HTU21D;55544;51.032;5.866;2023-06-19T05:14:09;21.45;71.84
68556;HTU21D;55544;51.032;5.866;2023-06-19T05:16:36;21.39;72.11
68556;HTU21D;55544;51.032;5.866;2023-06-19T05:19:02;21.44;72.14
68556;HTU21D;55544;51.032;5.866;2023-06-19T05:21:28;21.47;72.01
68556;HTU21D;55544;51.032;5.866;2023-06-19T05:23:53;21.49;71.71
68556;HTU21D;55544;51.032;5.866;2023-06-19T05:26:20;21.47;71.93
68556;HTU21D;55544;51.032;5.866;2023-06-19T05:28:46;21.55;71.69
68556;HTU21D;55544;51.032;5.866;2023-06-19T05:31:12;21.55;71.77
68556;HTU21D;55544;51.032;5.866;2023-06-19T05:33:38;21.64;71.66
68556;HTU21D;55544;51.032;5.866;2023-06-19T05:36:04;21.66;71.22
68556;HTU21D;55544;51.032;5.866;2023-06-19T05:38:29;21.64;71.67
68556;HTU21D;55544;51.032;5.866;2023-06-19T05:40:56;21.53;72.00
68556;HTU21D;55544;51.032;5.866;2023-06-19T05:43:22;21.44;72.42
68556;HTU21D;55544;51.032;5.866;2023-06-19T05:45:50;21.38;72.87
68556;HTU21D;55544;51.032;5.866;2023-06-19T05:48:16;21.38;73.19
68556;HTU21D;55544;51.032;5.866;2023-06-19T05:50:41;21.33;73.82
68556;HTU21D;55544;51.032;5.866;2023-06-19T05:53:07;21.35;73.77
68556;HTU21D;55544;51.032;5.866;2023-06-19T05:55:33;21.45;73.94
68556;HTU21D;55544;51.032;5.866;2023-06-19T05:57:58;21.48;73.52
68556;HTU21D;55544;51.032;5.866;2023-06-19T06:00:24;21.46;73.66
68556;HTU21D;55544;51.032;5.866;2023-06-19T06:02:50;21.49;73.88
68556;HTU21D;55544;51.032;5.866;2023-06-19T06:05:18;21.55;73.96
68556;HTU21D;55544;51.032;5.866;2023-06-19T06:07:46;21.52;73.90
68556;HTU21D;55544;51.032;5.866;2023-06-19T06:10:11;21.51;74.06
68556;HTU21D;55544;51.032;5.866;2023-06-19T06:12:37;21.53;74.25
68556;HTU21D;55544;51.032;5.866;2023-06-19T06:15:06;21.50;74.13
68556;HTU21D;55544;51.032;5.866;2023-06-19T06:17:32;21.47;74.02
68556;HTU21D;55544;51.032;5.866;2023-06-19T06:19:58;21.38;74.22
68556;HTU21D;55544;51.032;5.866;2023-06-19T06:22:23;21.30;74.77
68556;HTU21D;55544;51.032;5.866;2023-06-19T06:24:49;21.29;74.70
68556;HTU21D;55544;51.032;5.866;2023-06-19T06:27:15;21.31;74.96
68556;HTU21D;55544;51.032;5.866;2023-06-19T06:29:40;21.25;75.27
68556;HTU21D;55544;51.032;5.866;2023-06-19T06:32:07;21.28;75.01
68556;HTU21D;55544;51.032;5.866;2023-06-19T06:34:33;21.30;75.08
68556;HTU21D;55544;51.032;5.866;2023-06-19T06:37:00;21.34;74.76
68556;HTU21D;55544;51.032;5.866;2023-06-19T06:39:26;21.32;74.33
68556;HTU21D;55544;51.032;5.866;2023-06-19T06:41:52;21.23;74.64
68556;HTU21D;55544;51.032;5.866;2023-06-19T06:44:17;21.24;74.60
68556;HTU21D;55544;51.032;5.866;2023-06-19T06:46:43;21.31;74.67
68556;HTU21D;55544;51.032;5.866;2023-06-19T06:49:09;21.44;74.67
68556;HTU21D;55544;51.032;5.866;2023-06-19T06:51:36;21.58;73.96
68556;HTU21D;55544;51.032;5.866;2023-06-19T06:54:01;21.58;71.10
68556;HTU21D;55544;51.032;5.866;2023-06-19T06:56:27;21.61;71.59
68556;HTU21D;55544;51.032;5.866;2023-06-19T06:58:53;21.61;70.96
68556;HTU21D;55544;51.032;5.866;2023-06-19T07:01:18;21.65;70.62
68556;HTU21D;55544;51.032;5.866;2023-06-19T07:03:44;21.74;70.25
68556;HTU21D;55544;51.032;5.866;2023-06-19T07:06:10;21.85;70.13
68556;HTU21D;55544;51.032;5.866;2023-06-19T07:08:35;21.99;69.39
68556;HTU21D;55544;51.032;5.866;2023-06-19T07:11:01;22.02;70.03
68556;HTU21D;55544;51.032;5.866;2023-06-19T07:13:27;22.23;68.70
68556;HTU21D;55544;51.032;5.866;2023-06-19T07:15:52;22.29;68.52
68556;HTU21D;55544;51.032;5.866;2023-06-19T07:18:18;22.41;68.61
68556;HTU21D;55544;51.032;5.866;2023-06-19T07:20:44;22.56;68.17
68556;HTU21D;55544;51.032;5.866;2023-06-19T07:23:10;22.64;66.93
68556;HTU21D;55544;51.032;5.866;2023-06-19T07:25:36;22.66;67.44
68556;HTU21D;55544;51.032;5.866;2023-06-19T07:28:02;22.85;66.63
68556;HTU21D;55544;51.032;5.866;2023-06-19T07:30:30;22.94;65.75
68556;HTU21D;55544;51.032;5.866;2023-06-19T07:32:56;22.95;65.40
68556;HTU21D;55544;51.032;5.866;2023-06-19T07:35:22;23.07;65.54
68556;HTU21D;55544;51.032;5.866;2023-06-19T07:37:47;23.18;65.04
68556;HTU21D;55544;51.032;5.866;2023-06-19T07:40:13;23.32;64.54
68556;HTU21D;55544;51.032;5.866;2023-06-19T07:42:39;23.40;62.71
68556;HTU21D;55544;51.032;5.866;2023-06-19T07:45:05;23.42;62.00
68556;HTU21D;55544;51.032;5.866;2023-06-19T07:47:31;23.34;61.76
68556;HTU21D;55544;51.032;5.866;2023-06-19T07:49:56;23.32;61.57
68556;HTU21D;55544;51.032;5.866;2023-06-19T07:52:22;23.39;61.87
68556;HTU21D;55544;51.032;5.866;2023-06-19T07:54:55;23.53;61.73
68556;HTU21D;55544;51.032;5.866;2023-06-19T07:57:24;23.52;61.02
68556;HTU21D;55544;51.032;5.866;2023-06-19T07:59:51;23.56;61.05
68556;HTU21D;55544;51.032;5.866;2023-06-19T08:02:17;23.66;61.43
68556;HTU21D;55544;51.032;5.866;2023-06-19T08:04:43;23.75;60.18
68556;HTU21D;55544;51.032;5.866;2023-06-19T08:07:09;23.68;60.83
68556;HTU21D;55544;51.032;5.866;2023-06-19T08:09:34;23.69;60.71
68556;HTU21D;55544;51.032;5.866;2023-06-19T08:12:01;23.70;60.78
68556;HTU21D;55544;51.032;5.866;2023-06-19T08:14:27;23.77;60.74
68556;HTU21D;55544;51.032;5.866;2023-06-19T08:16:54;23.85;60.26
68556;HTU21D;55544;51.032;5.866;2023-06-19T08:19:19;23.88;59.54
68556;HTU21D;55544;51.032;5.866;2023-06-19T08:21:45;23.92;59.32
68556;HTU21D;55544;51.032;5.866;2023-06-19T08:24:11;23.95;59.39
68556;HTU21D;55544;51.032;5.866;2023-06-19T08:26:36;24.04;59.41
68556;HTU21D;55544;51.032;5.866;2023-06-19T08:29:02;24.23;59.12
68556;HTU21D;55544;51.032;5.866;2023-06-19T08:31:28;24.33;58.54
68556;HTU21D;55544;51.032;5.866;2023-06-19T08:33:57;24.29;57.84
68556;HTU21D;55544;51.032;5.866;2023-06-19T08:36:23;24.27;58.09
68556;HTU21D;55544;51.032;5.866;2023-06-19T08:38:49;24.33;58.74
68556;HTU21D;55544;51.032;5.866;2023-06-19T08:41:17;24.53;56.84
68556;HTU21D;55544;51.032;5.866;2023-06-19T08:43:44;24.66;56.64
68556;HTU21D;55544;51.032;5.866;2023-06-19T08:46:14;24.68;56.16
68556;HTU21D;55544;51.032;5.866;2023-06-19T08:48:40;24.77;56.13
68556;HTU21D;55544;51.032;5.866;2023-06-19T08:51:07;24.73;55.58
68556;HTU21D;55544;51.032;5.866;2023-06-19T08:53:35;24.74;55.36
68556;HTU21D;55544;51.032;5.866;2023-06-19T08:56:03;24.69;55.55
68556;HTU21D;55544;51.032;5.866;2023-06-19T08:58:28;24.78;55.91
68556;HTU21D;55544;51.032;5.866;2023-06-19T09:00:54;24.93;55.42
68556;HTU21D;55544;51.032;5.866;2023-06-19T09:03:21;24.95;54.42
68556;HTU21D;55544;51.032;5.866;2023-06-19T09:05:47;24.87;54.92
68556;HTU21D;55544;51.032;5.866;2023-06-19T09:08:17;24.86;54.93
68556;HTU21D;55544;51.032;5.866;2023-06-19T09:11:00;24.99;54.27
68556;HTU21D;55544;51.032;5.866;2023-06-19T09:13:27;25.20;54.86
68556;HTU21D;55544;51.032;5.866;2023-06-19T09:16:03;25.37;54.58
68556;HTU21D;55544;51.032;5.866;2023-06-19T09:19:02;25.57;52.28
68556;HTU21D;55544;51.032;5.866;2023-06-19T09:21:27;25.47;52.45
68556;HTU21D;55544;51.032;5.866;2023-06-19T09:23:54;25.53;51.92
68556;HTU21D;55544;51.032;5.866;2023-06-19T09:26:28;25.52;53.00
68556;HTU21D;55544;51.032;5.866;2023-06-19T09:28:54;25.73;52.02
68556;HTU21D;55544;51.032;5.866;2023-06-19T09:31:19;25.86;50.03
68556;HTU21D;55544;51.032;5.866;2023-06-19T09:33:45;25.89;50.27
68556;HTU21D;55544;51.032;5.866;2023-06-19T09:36:11;25.87;50.93
68556;HTU21D;55544;51.032;5.866;2023-06-19T09:38:38;26.02;50.41
68556;HTU21D;55544;51.032;5.866;2023-06-19T09:41:07;26.20;50.50
68556;HTU21D;55544;51.032;5.866;2023-06-19T09:43:40;26.48;50.35
68556;HTU21D;55544;51.032;5.866;2023-06-19T09:46:10;26.64;49.74
68556;HTU21D;55544;51.032;5.866;2023-06-19T09:48:41;26.76;49.40
68556;HTU21D;55544;51.032;5.866;2023-06-19T09:53:36;26.78;48.44
68556;HTU21D;55544;51.032;5.866;2023-06-19T09:56:02;26.68;47.79
68556;HTU21D;55544;51.032;5.866;2023-06-19T09:58:30;26.66;46.70
68556;HTU21D;55544;51.032;5.866;2023-06-19T10:00:58;26.62;46.93
68556;HTU21D;55544;51.032;5.866;2023-06-19T10:03:32;26.70;47.96
68556;HTU21D;55544;51.032;5.866;2023-06-19T10:05:59;26.81;47.86
68556;HTU21D;55544;51.032;5.866;2023-06-19T10:08:28;26.82;47.49
68556;HTU21D;55544;51.032;5.866;2023-06-19T10:10:55;26.85;46.93
68556;HTU21D;55544;51.032;5.866;2023-06-19T10:13:21;26.87;46.02
68556;HTU21D;55544;51.032;5.866;2023-06-19T10:15:46;26.95;46.73
68556;HTU21D;55544;51.032;5.866;2023-06-19T10:18:15;27.13;45.53
68556;HTU21D;55544;51.032;5.866;2023-06-19T10:20:42;27.21;46.38
68556;HTU21D;55544;51.032;5.866;2023-06-19T10:23:18;27.37;46.17
68556;HTU21D;55544;51.032;5.866;2023-06-19T10:25:55;27.47;44.84
68556;HTU21D;55544;51.032;5.866;2023-06-19T10:28:26;27.67;44.71
68556;HTU21D;55544;51.032;5.866;2023-06-19T10:31:06;27.79;43.62
68556;HTU21D;55544;51.032;5.866;2023-06-19T10:33:36;27.88;43.55
68556;HTU21D;55544;51.032;5.866;2023-06-19T10:36:20;28.10;43.16
68556;HTU21D;55544;51.032;5.866;2023-06-19T10:38:47;28.13;42.90
68556;HTU21D;55544;51.032;5.866;2023-06-19T10:41:17;27.94;43.47
68556;HTU21D;55544;51.032;5.866;2023-06-19T10:43:56;27.93;44.02
68556;HTU21D;55544;51.032;5.866;2023-06-19T10:46:23;27.91;43.61
68556;HTU21D;55544;51.032;5.866;2023-06-19T10:48:52;27.85;43.56
68556;HTU21D;55544;51.032;5.866;2023-06-19T10:51:23;27.86;42.81
68556;HTU21D;55544;51.032;5.866;2023-06-19T10:53:49;27.81;43.30
68556;HTU21D;55544;51.032;5.866;2023-06-19T10:56:15;27.80;43.71
68556;HTU21D;55544;51.032;5.866;2023-06-19T10:58:40;27.82;43.36
68556;HTU21D;55544;51.032;5.866;2023-06-19T11:01:06;27.96;43.84
68556;HTU21D;55544;51.032;5.866;2023-06-19T11:03:32;28.17;44.67
68556;HTU21D;55544;51.032;5.866;2023-06-19T11:05:57;28.31;44.96
68556;HTU21D;55544;51.032;5.866;2023-06-19T11:08:23;28.43;43.60
68556;HTU21D;55544;51.032;5.866;2023-06-19T11:10:50;28.38;42.39
68556;HTU21D;55544;51.032;5.866;2023-06-19T11:13:18;28.20;41.24
68556;HTU21D;55544;51.032;5.866;2023-06-19T11:15:45;28.08;41.97
68556;HTU21D;55544;51.032;5.866;2023-06-19T11:18:11;28.10;42.37
68556;HTU21D;55544;51.032;5.866;2023-06-19T11:20:51;28.15;42.74
68556;HTU21D;55544;51.032;5.866;2023-06-19T11:23:28;28.39;42.04
68556;HTU21D;55544;51.032;5.866;2023-06-19T11:25:54;28.59;41.14
68556;HTU21D;55544;51.032;5.866;2023-06-19T11:28:21;28.58;40.33
68556;HTU21D;55544;51.032;5.866;2023-06-19T11:30:49;28.48;40.14
68556;HTU21D;55544;51.032;5.866;2023-06-19T11:33:22;28.35;40.22
68556;HTU21D;55544;51.032;5.866;2023-06-19T11:35:52;28.33;40.81
68556;HTU21D;55544;51.032;5.866;2023-06-19T11:38:23;28.38;40.73
68556;HTU21D;55544;51.032;5.866;2023-06-19T11:40:50;28.45;41.11
68556;HTU21D;55544;51.032;5.866;2023-06-19T11:43:28;28.77;41.49
68556;HTU21D;55544;51.032;5.866;2023-06-19T11:46:02;29.03;41.39
68556;HTU21D;55544;51.032;5.866;2023-06-19T11:48:28;29.18;40.14
68556;HTU21D;55544;51.032;5.866;2023-06-19T11:50:54;29.22;39.46
68556;HTU21D;55544;51.032;5.866;2023-06-19T11:53:21;29.32;39.42
68556;HTU21D;55544;51.032;5.866;2023-06-19T11:55:47;29.42;39.52
68556;HTU21D;55544;51.032;5.866;2023-06-19T11:58:13;29.28;39.43
68556;HTU21D;55544;51.032;5.866;2023-06-19T12:00:41;29.17;39.33
68556;HTU21D;55544;51.032;5.866;2023-06-19T12:03:07;29.23;39.34
68556;HTU21D;55544;51.032;5.866;2023-06-19T12:05:33;29.49;38.96
68556;HTU21D;55544;51.032;5.866;2023-06-19T12:07:59;29.71;39.04
68556;HTU21D;55544;51.032;5.866;2023-06-19T12:10:28;30.00;37.94
68556;HTU21D;55544;51.032;5.866;2023-06-19T12:12:54;30.15;37.62
68556;HTU21D;55544;51.032;5.866;2023-06-19T12:15:20;30.26;36.64
68556;HTU21D;55544;51.032;5.866;2023-06-19T12:17:46;30.35;35.81
68556;HTU21D;55544;51.032;5.866;2023-06-19T12:20:12;30.24;35.80
68556;HTU21D;55544;51.032;5.866;2023-06-19T12:22:41;30.21;35.41
68556;HTU21D;55544;51.032;5.866;2023-06-19T12:25:08;30.23;35.46
68556;HTU21D;55544;51.032;5.866;2023-06-19T12:27:34;30.25;35.69
68556;HTU21D;55544;51.032;5.866;2023-06-19T12:30:00;30.40;36.09
68556;HTU21D;55544;51.032;5.866;2023-06-19T12:32:26;30.50;35.95
68556;HTU21D;55544;51.032;5.866;2023-06-19T12:34:52;30.50;35.35
68556;HTU21D;55544;51.032;5.866;2023-06-19T12:37:22;30.68;35.73
68556;HTU21D;55544;51.032;5.866;2023-06-19T12:39:50;31.02;35.24
68556;HTU21D;55544;51.032;5.866;2023-06-19T12:42:15;31.40;34.58
68556;HTU21D;55544;51.032;5.866;2023-06-19T12:44:42;31.83;33.45
68556;HTU21D;55544;51.032;5.866;2023-06-19T12:47:08;31.97;32.96
68556;HTU21D;55544;51.032;5.866;2023-06-19T12:49:34;31.88;32.04
68556;HTU21D;55544;51.032;5.866;2023-06-19T12:52:00;31.78;32.35
68556;HTU21D;55544;51.032;5.866;2023-06-19T12:54:26;31.85;31.74
68556;HTU21D;55544;51.032;5.866;2023-06-19T12:56:52;31.94;32.75
68556;HTU21D;55544;51.032;5.866;2023-06-19T12:59:19;32.05;32.18
68556;HTU21D;55544;51.032;5.866;2023-06-19T13:01:45;32.16;31.90
68556;HTU21D;55544;51.032;5.866;2023-06-19T13:04:12;32.56;30.49
68556;HTU21D;55544;51.032;5.866;2023-06-19T13:06:38;32.96;29.55
68556;HTU21D;55544;51.032;5.866;2023-06-19T13:09:05;32.81;29.42
68556;HTU21D;55544;51.032;5.866;2023-06-19T13:11:32;32.52;29.88
68556;HTU21D;55544;51.032;5.866;2023-06-19T13:14:02;32.54;30.06
68556;HTU21D;55544;51.032;5.866;2023-06-19T13:16:28;32.67;30.13
68556;HTU21D;55544;51.032;5.866;2023-06-19T13:18:54;32.94;28.96
68556;HTU21D;55544;51.032;5.866;2023-06-19T13:21:19;33.19;29.26
68556;HTU21D;55544;51.032;5.866;2023-06-19T13:23:45;33.32;28.59
68556;HTU21D;55544;51.032;5.866;2023-06-19T13:26:11;33.06;29.22
68556;HTU21D;55544;51.032;5.866;2023-06-19T13:28:37;32.83;29.50
68556;HTU21D;55544;51.032;5.866;2023-06-19T13:31:03;32.81;29.37
68556;HTU21D;55544;51.032;5.866;2023-06-19T13:33:29;32.78;29.45
68556;HTU21D;55544;51.032;5.866;2023-06-19T13:35:55;32.66;29.41
68556;HTU21D;55544;51.032;5.866;2023-06-19T13:38:21;32.58;30.20
68556;HTU21D;55544;51.032;5.866;2023-06-19T13:40:47;32.71;30.59
68556;HTU21D;55544;51.032;5.866;2023-06-19T13:43:13;32.84;30.31
68556;HTU21D;55544;51.032;5.866;2023-06-19T13:45:40;32.90;30.58
68556;HTU21D;55544;51.032;5.866;2023-06-19T13:48:05;33.12;29.49
68556;HTU21D;55544;51.032;5.866;2023-06-19T13:50:31;33.37;29.17
68556;HTU21D;55544;51.032;5.866;2023-06-19T13:52:59;33.50;28.55
68556;HTU21D;55544;51.032;5.866;2023-06-19T13:55:25;33.49;29.13
68556;HTU21D;55544;51.032;5.866;2023-06-19T13:57:51;33.88;28.65
68556;HTU21D;55544;51.032;5.866;2023-06-19T14:00:18;33.79;28.00
68556;HTU21D;55544;51.032;5.866;2023-06-19T14:02:44;33.53;28.39
68556;HTU21D;55544;51.032;5.866;2023-06-19T14:05:10;33.31;28.67
68556;HTU21D;55544;51.032;5.866;2023-06-19T14:07:36;33.33;28.70
68556;HTU21D;55544;51.032;5.866;2023-06-19T14:10:04;33.52;28.41
68556;HTU21D;55544;51.032;5.866;2023-06-19T14:12:30;33.97;27.42
68556;HTU21D;55544;51.032;5.866;2023-06-19T14:14:56;34.18;27.57
68556;HTU21D;55544;51.032;5.866;2023-06-19T14:17:22;34.10;27.51
68556;HTU21D;55544;51.032;5.866;2023-06-19T14:19:49;34.09;27.39
68556;HTU21D;55544;51.032;5.866;2023-06-19T14:22:16;34.16;28.39
68556;HTU21D;55544;51.032;5.866;2023-06-19T14:24:42;34.15;27.94
68556;HTU21D;55544;51.032;5.866;2023-06-19T14:27:08;34.18;27.79
68556;HTU21D;55544;51.032;5.866;2023-06-19T14:29:34;34.25;27.47
68556;HTU21D;55544;51.032;5.866;2023-06-19T14:32:00;34.40;27.10
68556;HTU21D;55544;51.032;5.866;2023-06-19T14:34:25;34.22;27.79
68556;HTU21D;55544;51.032;5.866;2023-06-19T14:36:51;34.22;27.39
68556;HTU21D;55544;51.032;5.866;2023-06-19T14:39:17;34.14;27.44
68556;HTU21D;55544;51.032;5.866;2023-06-19T14:41:43;34.01;27.87
68556;HTU21D;55544;51.032;5.866;2023-06-19T14:44:09;33.83;28.50
68556;HTU21D;55544;51.032;5.866;2023-06-19T14:46:34;34.09;27.71
68556;HTU21D;55544;51.032;5.866;2023-06-19T14:49:10;34.15;27.31
68556;HTU21D;55544;51.032;5.866;2023-06-19T14:51:38;34.25;27.69
68556;HTU21D;55544;51.032;5.866;2023-06-19T14:54:04;34.63;26.93
68556;HTU21D;55544;51.032;5.866;2023-06-19T14:56:30;35.10;25.75
68556;HTU21D;55544;51.032;5.866;2023-06-19T14:58:55;35.48;25.01
68556;HTU21D;55544;51.032;5.866;2023-06-19T15:01:21;35.70;24.98
68556;HTU21D;55544;51.032;5.866;2023-06-19T15:03:47;35.86;24.65
68556;HTU21D;55544;51.032;5.866;2023-06-19T15:06:12;35.42;25.39
68556;HTU21D;55544;51.032;5.866;2023-06-19T15:08:38;35.23;25.62
68556;HTU21D;55544;51.032;5.866;2023-06-19T15:11:04;35.06;26.05
68556;HTU21D;55544;51.032;5.866;2023-06-19T15:13:31;34.99;26.07
68556;HTU21D;55544;51.032;5.866;2023-06-19T15:15:57;34.85;25.81
68556;HTU21D;55544;51.032;5.866;2023-06-19T15:18:24;34.78;25.69
68556;HTU21D;55544;51.032;5.866;2023-06-19T15:20:50;34.80;26.17
68556;HTU21D;55544;51.032;5.866;2023-06-19T15:23:16;34.86;25.86